Gwynn Oak, Maryland
Current Conditions -  °F | °C
As of 3:54 AM on Thursday 27 Nov 2014 (Local Time) from KBWI Reporting Station
Broken Clouds Broken Clouds  
Wind Chill: 29°   Ceiling: 17000
Heat Index: 34°   Visibility: 10mi
Dew Point: 32°   Wind: 6mph
Humidity: 92%   Direction: 250°WSW
Pressure: 30"   Gusts: NA
Location:  39.32°N, 76.73°W
Report Text: KBWI 270854Z 25005KT 10SM FEW075 SCT090 BKN170 BKN250 01/00 A3000 RMK AO2 SLP160 T00110000 51006
Loading
Personal Weather Stations






























Interactive Weather Map New forecast layout! Learn more

10-Day Weather Forecast

Advertisements
Track Severe Weather on mobile